Trinity, Alabama
Current Conditions -  °F | °C
As of 12:53 PM on Monday 20 Oct 2014 (Local Time) from KDCU Reporting Station
Clear Clear  
Wind Chill: 67°   Ceiling: Unl
Heat Index: 67°   Visibility: 10mi
Dew Point: 50°   Wind: 7mph
Humidity: 54%   Direction: 260°W
Pressure: 30.07"   Gusts: NA
Location:  34.61°N, 87.09°W
Report Text: KDCU 201753Z AUTO 26006KT 10SM CLR 19/10 A3007 RMK AO2 SLP179 T01940100 10200 20050 58017
Loading
Personal Weather Stations






























Interactive Weather Map
Tropical Storm Tracking
New forecast layout! Learn more

10-Day Weather Forecast

Advertisements
Track Severe Weather on mobile